createdAt,value
2023-03-27T00:05:36.656Z,2.50
2023-03-27T00:11:56.212Z,2.08
2023-03-27T00:29:30.859Z,1.10
2023-03-27T00:35:48.433Z,1.08
2023-03-27T00:49:32.382Z,1.75
2023-03-27T01:05:44.896Z,1.98
2023-03-27T01:13:36.553Z,1.80
2023-03-27T01:38:44.104Z,2.97
2023-03-27T01:44:47.409Z,2.22
2023-03-27T01:51:35.394Z,1.95
2023-03-27T02:03:30.123Z,2.03
2023-03-27T02:06:26.650Z,2.20
2023-03-27T02:19:30.214Z,2.05
2023-03-27T02:43:11.220Z,1.67
2023-03-27T02:46:03.986Z,2.35
2023-03-27T02:59:39.468Z,3.41
2023-03-27T03:07:48.413Z,2.24
2023-03-27T03:10:15.966Z,2.63
2023-03-27T03:19:24.065Z,1.30
2023-03-27T03:21:51.077Z,1.45
2023-03-27T03:24:22.263Z,1.90
2023-03-27T03:26:51.923Z,2.08
2023-03-27T03:29:21.925Z,1.65
2023-03-27T03:31:55.744Z,1.27
2023-03-27T03:34:22.754Z,1.53
2023-03-27T03:36:55.207Z,1.68
2023-03-27T03:44:46.417Z,2.48
2023-03-27T03:47:17.163Z,2.40
2023-03-27T03:49:43.951Z,1.45
2023-03-27T03:52:10.768Z,1.98
2023-03-27T03:55:04.207Z,1.95
2023-03-27T03:58:44.067Z,1.40
2023-03-27T04:13:51.836Z,2.35
2023-03-27T04:16:29.697Z,2.10
2023-03-27T04:19:01.184Z,2.30
2023-03-27T04:21:42.441Z,1.70
2023-03-27T04:25:36.777Z,1.83
2023-03-27T04:28:21.480Z,2.12
2023-03-27T04:31:14.344Z,1.60
2023-03-27T04:39:10.601Z,1.77
2023-03-27T04:42:16.460Z,1.90
2023-03-27T04:48:39.093Z,1.82
2023-03-27T05:00:24.609Z,1.60
2023-03-27T05:11:27.579Z,2.60
2023-03-27T05:18:12.807Z,1.70
2023-03-27T05:32:59.460Z,2.25
2023-03-27T05:43:40.721Z,1.95
2023-03-27T05:46:09.126Z,2.17
2023-03-27T05:48:39.097Z,2.00
2023-03-27T05:51:27.673Z,1.33
2023-03-27T05:56:27.175Z,4.50
2023-03-27T05:59:14.035Z,2.00
2023-03-27T06:08:13.699Z,3.15
2023-03-27T06:25:44.238Z,1.67
2023-03-27T06:28:14.680Z,1.20
2023-03-27T06:30:42.231Z,2.57
2023-03-27T06:48:25.074Z,2.90
2023-03-27T06:59:50.059Z,1.70
2023-03-27T07:27:04.053Z,1.57
2023-03-27T07:30:14.346Z,2.72
2023-03-27T07:32:58.574Z,2.01
2023-03-27T07:35:49.141Z,1.38
2023-03-27T07:39:20.602Z,1.45
2023-03-27T07:41:52.344Z,1.92
2023-03-27T07:54:48.187Z,1.93
2023-03-27T08:00:16.437Z,2.03
2023-03-27T08:04:27.878Z,1.48
2023-03-27T08:06:55.837Z,2.10
2023-03-27T08:09:22.664Z,1.90
2023-03-27T08:13:25.460Z,1.70
2023-03-27T08:18:42.752Z,2.03
2023-03-27T08:21:21.289Z,2.75
2023-03-27T08:23:48.138Z,1.92
2023-03-27T08:26:16.053Z,2.72
2023-03-27T08:33:20.222Z,2.13
2023-03-27T08:35:51.059Z,2.57
2023-03-27T08:38:57.237Z,2.99
2023-03-27T08:42:00.997Z,3.52
2023-03-27T08:44:28.736Z,2.20
2023-03-27T08:47:37.993Z,1.58
2023-03-27T09:03:22.316Z,2.00
2023-03-27T09:06:11.565Z,3.23
2023-03-27T09:13:29.124Z,2.59
2023-03-27T09:16:22.077Z,2.26
2023-03-27T09:19:20.381Z,2.53
2023-03-27T09:25:50.584Z,1.95
2023-03-27T09:31:32.180Z,2.31
2023-03-27T09:34:16.740Z,2.77
2023-03-27T09:36:50.883Z,3.15
2023-03-27T09:39:22.355Z,2.63
2023-03-27T09:41:51.489Z,2.33
2023-03-27T09:44:26.015Z,2.57
2023-03-27T09:47:04.451Z,2.85
2023-03-27T09:50:21.569Z,2.18
2023-03-27T09:52:55.222Z,3.18
2023-03-27T09:55:31.227Z,2.78
2023-03-27T09:58:15.319Z,3.17
2023-03-27T10:01:09.659Z,3.35
2023-03-27T10:03:40.406Z,3.16
2023-03-27T10:06:09.302Z,3.13
2023-03-27T10:08:53.024Z,2.35
2023-03-27T10:11:32.807Z,2.38
2023-03-27T10:14:16.920Z,2.83
2023-03-27T10:16:46.265Z,2.53
2023-03-27T10:19:38.746Z,2.16
2023-03-27T10:22:14.800Z,2.41
2023-03-27T10:27:33.662Z,2.73
2023-03-27T10:30:03.310Z,2.13
2023-03-27T10:38:25.023Z,3.87
2023-03-27T10:41:28.251Z,2.60
2023-03-27T10:44:04.645Z,1.83
2023-03-27T10:46:31.631Z,2.70
2023-03-27T10:49:10.439Z,3.02
2023-03-27T10:51:50.127Z,2.90
2023-03-27T10:54:20.114Z,2.17
2023-03-27T10:57:37.724Z,2.47
2023-03-27T11:00:18.145Z,2.27
2023-03-27T11:03:05.135Z,2.50
2023-03-27T11:05:38.658Z,1.90
2023-03-27T11:08:32.644Z,3.20
2023-03-27T11:11:21.151Z,2.20
2023-03-27T11:13:49.009Z,2.55
2023-03-27T11:16:21.413Z,1.90
2023-03-27T11:19:09.537Z,2.70
2023-03-27T11:21:41.202Z,2.97
2023-03-27T11:24:20.821Z,2.50
2023-03-27T11:27:14.393Z,2.35
2023-03-27T11:30:00.692Z,2.30
2023-03-27T11:39:22.701Z,2.16
2023-03-27T11:42:05.282Z,2.10
2023-03-27T11:44:32.117Z,2.23
2023-03-27T11:47:43.942Z,3.13
2023-03-27T11:50:22.967Z,2.80
2023-03-27T11:53:02.154Z,3.10
2023-03-27T11:55:34.850Z,2.86
2023-03-27T11:58:13.922Z,2.88
2023-03-27T12:00:58.996Z,2.57
2023-03-27T12:03:46.960Z,2.20
2023-03-27T12:06:26.698Z,3.13
2023-03-27T12:09:01.176Z,2.23
2023-03-27T12:11:28.372Z,1.70
2023-03-27T12:14:17.373Z,2.90
2023-03-27T12:17:19.806Z,2.92
2023-03-27T12:19:52.584Z,1.73
2023-03-27T12:22:41.822Z,2.00
2023-03-27T12:25:27.424Z,2.47
2023-03-27T12:28:03.659Z,2.40
2023-03-27T12:30:37.249Z,2.10
2023-03-27T12:33:18.718Z,2.60
2023-03-27T12:35:47.467Z,2.33
2023-03-27T12:38:23.041Z,2.17
2023-03-27T12:41:02.992Z,1.77
2023-03-27T12:43:31.746Z,2.37
2023-03-27T12:46:31.114Z,1.97
2023-03-27T12:52:02.795Z,1.77
2023-03-27T12:54:34.011Z,2.03
2023-03-27T12:57:06.677Z,2.13
2023-03-27T12:59:48.880Z,2.87
2023-03-27T13:02:18.396Z,2.30
2023-03-27T13:05:27.612Z,2.40
2023-03-27T13:08:07.140Z,2.03
2023-03-27T13:10:52.819Z,2.27
2023-03-27T13:13:44.814Z,2.37
2023-03-27T13:16:15.021Z,2.43
2023-03-27T13:18:52.848Z,2.70
2023-03-27T13:21:36.435Z,2.27
2023-03-27T13:24:25.708Z,2.50
2023-03-27T13:26:52.490Z,2.30
2023-03-27T13:29:21.664Z,2.83
2023-03-27T13:31:49.779Z,2.10
2023-03-27T13:35:38.530Z,2.08
2023-03-27T13:41:45.162Z,1.83
2023-03-27T13:47:33.668Z,2.15
2023-03-27T13:50:47.611Z,1.77
2023-03-27T13:53:25.531Z,2.50
2023-03-27T13:56:26.630Z,2.67
2023-03-27T14:00:18.142Z,2.44
2023-03-27T14:03:26.652Z,2.18
2023-03-27T14:06:11.902Z,1.90
2023-03-27T14:09:13.458Z,1.98
2023-03-27T14:11:45.746Z,1.90
2023-03-27T14:14:21.058Z,2.55
2023-03-27T14:16:51.644Z,2.35
2023-03-27T14:19:30.839Z,1.90
2023-03-27T14:27:27.876Z,1.98
2023-03-27T14:32:50.432Z,2.07
2023-03-27T14:35:37.279Z,2.40
2023-03-27T14:38:23.446Z,2.13
2023-03-27T14:40:52.132Z,2.33
2023-03-27T14:43:19.895Z,1.60
2023-03-27T14:45:46.855Z,2.00
2023-03-27T14:48:33.152Z,2.40
2023-03-27T14:51:04.549Z,2.07
2023-03-27T14:53:36.527Z,2.00
2023-03-27T14:56:11.007Z,1.83
2023-03-27T14:58:58.776Z,1.90
2023-03-27T15:01:26.275Z,2.30
2023-03-27T15:03:53.228Z,2.03
2023-03-27T15:06:23.319Z,3.08
2023-03-27T15:08:55.836Z,2.13
2023-03-27T15:11:25.453Z,2.13
2023-03-27T15:13:52.318Z,3.03
2023-03-27T15:19:12.106Z,2.00
2023-03-27T15:21:59.775Z,2.13
2023-03-27T15:25:22.993Z,1.60
2023-03-27T15:27:55.231Z,1.80
2023-03-27T15:30:45.452Z,1.88
2023-03-27T15:36:06.853Z,2.97
2023-03-27T15:39:21.922Z,2.62
2023-03-27T15:41:52.971Z,2.47
2023-03-27T15:44:21.337Z,2.22
2023-03-27T15:51:12.054Z,1.35
2023-03-27T15:53:49.254Z,2.42
2023-03-27T15:56:21.673Z,2.25
2023-03-27T15:59:02.007Z,2.23
2023-03-27T16:02:14.090Z,1.90
2023-03-27T16:06:51.554Z,1.88
2023-03-27T16:09:23.554Z,2.43
2023-03-27T16:17:31.542Z,1.90
2023-03-27T16:20:12.060Z,2.20
2023-03-27T16:22:39.335Z,2.00
2023-03-27T16:25:52.283Z,1.70
2023-03-27T16:28:22.529Z,2.45
2023-03-27T16:30:51.272Z,1.60
2023-03-27T16:33:21.200Z,2.20
2023-03-27T16:35:48.207Z,2.30
2023-03-27T16:38:15.737Z,2.72
2023-03-27T16:44:34.959Z,3.92
2023-03-27T16:48:25.848Z,1.73
2023-03-27T16:55:56.334Z,2.26
2023-03-27T17:04:43.754Z,2.22
2023-03-27T17:07:10.836Z,1.85
2023-03-27T17:14:03.131Z,2.15
2023-03-27T17:16:31.212Z,2.43
2023-03-27T17:26:02.032Z,2.04
2023-03-27T17:42:16.402Z,2.15
2023-03-27T17:45:24.056Z,2.88
2023-03-27T17:54:07.630Z,2.60
2023-03-27T17:56:35.472Z,2.27
2023-03-27T18:05:24.112Z,2.38
2023-03-27T18:07:52.871Z,1.48
2023-03-27T18:10:20.446Z,1.90
2023-03-27T18:16:56.589Z,1.50
2023-03-27T18:19:25.340Z,2.00
2023-03-27T18:21:52.142Z,1.80
2023-03-27T18:24:19.849Z,2.00
2023-03-27T18:29:38.014Z,2.60
2023-03-27T18:35:10.941Z,2.00
2023-03-27T18:37:42.769Z,1.80
2023-03-27T18:40:16.175Z,2.85
2023-03-27T18:42:46.123Z,2.84
2023-03-27T18:45:15.626Z,2.26
2023-03-27T18:47:49.222Z,2.15
2023-03-27T18:50:17.233Z,2.75
2023-03-27T18:52:44.236Z,2.50
2023-03-27T18:55:11.184Z,2.50
2023-03-27T18:57:38.258Z,2.10
2023-03-27T19:00:08.626Z,2.20
2023-03-27T19:02:36.851Z,2.66
2023-03-27T19:05:04.199Z,2.27
2023-03-27T19:07:31.086Z,2.37
2023-03-27T19:09:58.117Z,2.67
2023-03-27T19:12:25.048Z,2.10
2023-03-27T19:14:51.840Z,2.73
2023-03-27T19:17:21.120Z,2.03
2023-03-27T19:19:47.909Z,2.83
2023-03-27T19:22:14.815Z,2.33
2023-03-27T19:24:41.710Z,3.03
2023-03-27T19:27:08.741Z,2.57
2023-03-27T19:29:51.482Z,2.47
2023-03-27T19:32:18.316Z,1.97
2023-03-27T19:34:45.111Z,2.07
2023-03-27T19:37:12.122Z,3.97
2023-03-27T19:39:38.996Z,2.53
2023-03-27T19:42:05.909Z,2.00
2023-03-27T19:47:42.183Z,1.80
2023-03-27T19:50:14.693Z,1.80
2023-03-27T19:52:42.553Z,1.83
2023-03-27T19:55:09.561Z,2.23
2023-03-27T19:57:36.381Z,1.87
2023-03-27T20:00:06.477Z,2.07
2023-03-27T20:02:33.474Z,2.40
2023-03-27T20:05:00.432Z,2.07
2023-03-27T20:07:27.255Z,1.93
2023-03-27T20:09:54.077Z,2.17
2023-03-27T20:12:23.037Z,2.30
2023-03-27T20:15:07.053Z,3.20
2023-03-27T20:17:36.684Z,1.93
2023-03-27T20:20:05.708Z,2.03
2023-03-27T20:22:36.602Z,1.97
2023-03-27T20:25:10.300Z,1.80
2023-03-27T20:27:37.135Z,2.13
2023-03-27T20:30:04.452Z,1.73
2023-03-27T20:32:31.417Z,1.70
2023-03-27T20:34:58.288Z,2.30
2023-03-27T20:37:27.058Z,1.60
2023-03-27T20:39:54.338Z,1.63
2023-03-27T20:42:23.194Z,2.10
2023-03-27T20:44:58.328Z,2.00
2023-03-27T20:47:25.389Z,2.10
2023-03-27T20:49:52.292Z,1.40
2023-03-27T20:52:19.563Z,2.73
2023-03-27T20:54:47.806Z,2.00
2023-03-27T20:57:14.892Z,1.63
2023-03-27T20:59:41.768Z,1.80
2023-03-27T21:02:18.807Z,2.77
2023-03-27T21:04:46.694Z,1.70
2023-03-27T21:07:15.770Z,1.53
2023-03-27T21:09:42.954Z,1.50
2023-03-27T21:12:09.935Z,2.00
2023-03-27T21:14:36.809Z,1.57
2023-03-27T21:17:03.640Z,1.80
2023-03-27T21:19:30.489Z,2.80
2023-03-27T21:21:57.540Z,1.40
2023-03-27T21:24:24.385Z,1.80
2023-03-27T21:26:51.374Z,1.50
2023-03-27T21:29:18.419Z,1.60
2023-03-27T21:31:45.446Z,1.90
2023-03-27T21:34:12.337Z,1.70
2023-03-27T21:36:39.191Z,1.70
2023-03-27T21:39:06.095Z,1.43
2023-03-27T21:41:32.941Z,1.60
2023-03-27T21:43:59.719Z,1.40
2023-03-27T21:46:27.682Z,2.43
2023-03-27T21:48:54.572Z,1.90
2023-03-27T21:51:21.435Z,1.70
2023-03-27T21:53:48.351Z,1.57
2023-03-27T21:56:15.370Z,1.70
2023-03-27T21:58:42.160Z,1.73
2023-03-27T22:01:08.983Z,2.00
2023-03-27T22:03:35.891Z,1.80
2023-03-27T22:06:12.376Z,2.00
2023-03-27T22:08:41.184Z,1.67
2023-03-27T22:11:08.209Z,1.77
2023-03-27T22:13:37.240Z,1.90
2023-03-27T22:16:14.184Z,1.70
2023-03-27T22:18:41.309Z,1.60
2023-03-27T22:21:32.457Z,2.07
2023-03-27T22:23:59.817Z,2.40
2023-03-27T22:26:29.000Z,1.90
2023-03-27T22:28:57.171Z,2.07
2023-03-27T22:31:24.229Z,1.97
2023-03-27T22:33:51.148Z,2.40
2023-03-27T22:36:19.479Z,2.30
2023-03-27T22:38:46.538Z,2.27
2023-03-27T22:41:13.633Z,2.10
2023-03-27T22:43:40.524Z,2.20
2023-03-27T22:46:15.428Z,2.40
2023-03-27T22:48:42.314Z,2.47
2023-03-27T22:51:10.383Z,2.87
2023-03-27T22:53:37.272Z,2.67
2023-03-27T22:56:04.490Z,2.37
2023-03-27T22:58:31.438Z,2.60
2023-03-27T23:00:58.380Z,2.87
2023-03-27T23:03:27.494Z,4.43
2023-03-27T23:05:54.728Z,3.70
2023-03-27T23:08:24.077Z,3.00
2023-03-27T23:11:04.286Z,4.10
2023-03-27T23:13:32.267Z,3.77
2023-03-27T23:15:59.374Z,4.87
2023-03-27T23:18:27.182Z,3.53
2023-03-27T23:20:58.924Z,4.47
2023-03-27T23:23:26.486Z,4.40
2023-03-27T23:25:54.033Z,4.07
2023-03-27T23:28:21.118Z,4.87
2023-03-27T23:31:01.422Z,5.07
2023-03-27T23:33:31.172Z,4.17
2023-03-27T23:36:11.905Z,4.50
2023-03-27T23:38:39.002Z,4.50
2023-03-27T23:41:06.723Z,4.97
2023-03-27T23:43:33.720Z,4.93
2023-03-27T23:46:00.758Z,4.80
2023-03-27T23:48:28.677Z,5.00
2023-03-27T23:50:56.120Z,5.07
2023-03-27T23:53:25.808Z,4.47
2023-03-27T23:55:53.442Z,5.13
2023-03-27T23:58:20.339Z,5.77
